sensor_id;sensor_type;location;lat;lon;timestamp;pressure;altitude;pressure_sealevel;temperature;humidity
67434;BME280;54305;47.950;6.572;2023-10-08T00:00:12;95311.75;;;13.22;100.00
67434;BME280;54305;47.950;6.572;2023-10-08T00:02:57;95307.53;;;13.29;100.00
67434;BME280;54305;47.950;6.572;2023-10-08T00:05:22;95307.44;;;13.38;100.00
67434;BME280;54305;47.950;6.572;2023-10-08T00:07:47;95297.06;;;13.29;100.00
67434;BME280;54305;47.950;6.572;2023-10-08T00:10:12;95299.59;;;13.21;100.00
67434;BME280;54305;47.950;6.572;2023-10-08T00:12:38;95302.19;;;13.13;100.00
67434;BME280;54305;47.950;6.572;2023-10-08T00:15:03;95303.31;;;13.10;100.00
67434;BME280;54305;47.950;6.572;2023-10-08T00:17:32;95302.47;;;13.10;100.00
67434;BME280;54305;47.950;6.572;2023-10-08T00:19:57;95304.75;;;13.05;100.00
67434;BME280;54305;47.950;6.572;2023-10-08T00:22:25;95304.09;;;13.03;100.00
67434;BME280;54305;47.950;6.572;2023-10-08T00:24:50;95289.88;;;13.05;100.00
67434;BME280;54305;47.950;6.572;2023-10-08T00:27:22;95292.31;;;13.07;100.00
67434;BME280;54305;47.950;6.572;2023-10-08T00:29:48;95289.50;;;13.26;100.00
67434;BME280;54305;47.950;6.572;2023-10-08T00:32:13;95301.88;;;13.16;100.00
67434;BME280;54305;47.950;6.572;2023-10-08T00:34:39;95296.22;;;13.28;100.00
67434;BME280;54305;47.950;6.572;2023-10-08T00:37:08;95287.59;;;13.36;100.00
67434;BME280;54305;47.950;6.572;2023-10-08T00:39:35;95291.53;;;13.32;100.00
67434;BME280;54305;47.950;6.572;2023-10-08T00:42:02;95288.84;;;13.24;100.00
67434;BME280;54305;47.950;6.572;2023-10-08T00:44:29;95288.84;;;13.24;100.00
67434;BME280;54305;47.950;6.572;2023-10-08T00:46:55;95279.50;;;13.21;100.00
67434;BME280;54305;47.950;6.572;2023-10-08T00:49:25;95278.47;;;13.40;100.00
67434;BME280;54305;47.950;6.572;2023-10-08T00:51:51;95285.63;;;13.30;100.00
67434;BME280;54305;47.950;6.572;2023-10-08T00:54:26;95283.13;;;13.20;100.00
67434;BME280;54305;47.950;6.572;2023-10-08T00:56:53;95282.59;;;13.17;100.00
67434;BME280;54305;47.950;6.572;2023-10-08T00:59:22;95285.59;;;13.22;100.00
67434;BME280;54305;47.950;6.572;2023-10-08T01:01:49;95288.56;;;13.27;100.00
67434;BME280;54305;47.950;6.572;2023-10-08T01:04:24;95289.47;;;13.18;100.00
67434;BME280;54305;47.950;6.572;2023-10-08T01:06:54;95286.59;;;13.29;100.00
67434;BME280;54305;47.950;6.572;2023-10-08T01:09:38;95296.78;;;13.40;100.00
67434;BME280;54305;47.950;6.572;2023-10-08T01:12:14;95297.78;;;13.39;100.00
67434;BME280;54305;47.950;6.572;2023-10-08T01:15:00;95302.59;;;13.26;100.00
67434;BME280;54305;47.950;6.572;2023-10-08T01:17:44;95301.56;;;13.19;100.00
67434;BME280;54305;47.950;6.572;2023-10-08T01:20:29;95293.38;;;13.14;100.00
67434;BME280;54305;47.950;6.572;2023-10-08T01:23:02;95303.31;;;13.10;100.00
67434;BME280;54305;47.950;6.572;2023-10-08T01:25:29;95299.22;;;13.08;100.00
67434;BME280;54305;47.950;6.572;2023-10-08T01:27:55;95300.22;;;13.15;100.00
67434;BME280;54305;47.950;6.572;2023-10-08T01:30:21;95309.34;;;13.11;100.00
67434;BME280;54305;47.950;6.572;2023-10-08T01:32:46;95303.81;;;13.14;100.00
67434;BME280;54305;47.950;6.572;2023-10-08T01:35:12;95307.06;;;13.08;100.00
67434;BME280;54305;47.950;6.572;2023-10-08T01:37:48;95311.53;;;13.15;100.00
67434;BME280;54305;47.950;6.572;2023-10-08T01:40:15;95301.81;;;13.08;100.00
67434;BME280;54305;47.950;6.572;2023-10-08T01:42:41;95303.75;;;13.06;100.00
67434;BME280;54305;47.950;6.572;2023-10-08T01:45:07;95304.94;;;13.11;100.00
67434;BME280;54305;47.950;6.572;2023-10-08T01:47:34;95308.53;;;13.10;100.00
67434;BME280;54305;47.950;6.572;2023-10-08T01:50:00;95299.53;;;13.30;100.00
67434;BME280;54305;47.950;6.572;2023-10-08T01:52:30;95294.50;;;13.37;100.00
67434;BME280;54305;47.950;6.572;2023-10-08T01:54:55;95284.97;;;13.28;100.00
67434;BME280;54305;47.950;6.572;2023-10-08T01:57:21;95291.31;;;13.25;100.00
67434;BME280;54305;47.950;6.572;2023-10-08T01:59:46;95280.44;;;13.12;100.00
67434;BME280;54305;47.950;6.572;2023-10-08T02:02:11;95276.75;;;13.23;100.00
67434;BME280;54305;47.950;6.572;2023-10-08T02:04:39;95280.44;;;13.38;100.00
67434;BME280;54305;47.950;6.572;2023-10-08T02:07:05;95276.53;;;13.42;100.00
67434;BME280;54305;47.950;6.572;2023-10-08T02:09:33;95265.75;;;13.45;100.00
67434;BME280;54305;47.950;6.572;2023-10-08T02:11:58;95269.03;;;13.47;100.00
67434;BME280;54305;47.950;6.572;2023-10-08T02:14:24;95262.88;;;13.56;100.00
67434;BME280;54305;47.950;6.572;2023-10-08T02:16:49;95259.28;;;13.57;100.00
67434;BME280;54305;47.950;6.572;2023-10-08T02:19:20;95254.03;;;13.57;100.00
67434;BME280;54305;47.950;6.572;2023-10-08T02:21:51;95264.00;;;13.53;100.00
67434;BME280;54305;47.950;6.572;2023-10-08T02:24:19;95252.06;;;13.59;100.00
67434;BME280;54305;47.950;6.572;2023-10-08T02:26:46;95254.44;;;13.70;100.00
67434;BME280;54305;47.950;6.572;2023-10-08T02:29:11;95258.69;;;13.79;100.00
67434;BME280;54305;47.950;6.572;2023-10-08T02:31:40;95255.94;;;13.80;100.00
67434;BME280;54305;47.950;6.572;2023-10-08T02:34:06;95250.50;;;13.74;100.00
67434;BME280;54305;47.950;6.572;2023-10-08T02:36:37;95253.09;;;13.66;100.00
67434;BME280;54305;47.950;6.572;2023-10-08T02:39:03;95252.56;;;13.62;100.00
67434;BME280;54305;47.950;6.572;2023-10-08T02:41:50;95248.19;;;13.63;100.00
67434;BME280;54305;47.950;6.572;2023-10-08T02:44:16;95252.78;;;13.69;100.00
67434;BME280;54305;47.950;6.572;2023-10-08T02:46:45;95248.06;;;13.72;100.00
67434;BME280;54305;47.950;6.572;2023-10-08T02:49:12;95243.31;;;13.76;100.00
67434;BME280;54305;47.950;6.572;2023-10-08T02:51:39;95246.94;;;13.75;100.00
67434;BME280;54305;47.950;6.572;2023-10-08T02:54:06;95245.81;;;13.85;100.00
67434;BME280;54305;47.950;6.572;2023-10-08T02:56:32;95248.25;;;13.87;100.00
67434;BME280;54305;47.950;6.572;2023-10-08T02:58:58;95251.53;;;13.81;100.00
67434;BME280;54305;47.950;6.572;2023-10-08T03:01:23;95253.50;;;13.87;100.00
67434;BME280;54305;47.950;6.572;2023-10-08T03:03:50;95247.28;;;13.88;100.00
67434;BME280;54305;47.950;6.572;2023-10-08T03:06:19;95254.50;;;13.86;100.00
67434;BME280;54305;47.950;6.572;2023-10-08T03:08:44;95248.31;;;13.95;100.00
67434;BME280;54305;47.950;6.572;2023-10-08T03:11:12;95254.00;;;13.90;100.00
67434;BME280;54305;47.950;6.572;2023-10-08T03:13:44;95246.59;;;13.78;100.00
67434;BME280;54305;47.950;6.572;2023-10-08T03:16:12;95245.94;;;13.84;100.00
67434;BME280;54305;47.950;6.572;2023-10-08T03:18:38;95244.69;;;13.96;100.00
67434;BME280;54305;47.950;6.572;2023-10-08T03:21:08;95250.91;;;14.03;100.00
67434;BME280;54305;47.950;6.572;2023-10-08T03:23:46;95245.06;;;14.09;100.00
67434;BME280;54305;47.950;6.572;2023-10-08T03:26:23;95235.56;;;14.00;100.00
67434;BME280;54305;47.950;6.572;2023-10-08T03:29:03;95238.81;;;14.02;100.00
67434;BME280;54305;47.950;6.572;2023-10-08T03:31:43;95236.53;;;13.99;100.00
67434;BME280;54305;47.950;6.572;2023-10-08T03:34:11;95228.97;;;13.96;100.00
67434;BME280;54305;47.950;6.572;2023-10-08T03:36:40;95227.38;;;14.11;100.00
67434;BME280;54305;47.950;6.572;2023-10-08T03:39:11;95223.94;;;14.10;100.00
67434;BME280;54305;47.950;6.572;2023-10-08T03:41:40;95227.38;;;14.11;100.00
67434;BME280;54305;47.950;6.572;2023-10-08T03:44:07;95238.84;;;14.10;100.00
67434;BME280;54305;47.950;6.572;2023-10-08T03:46:38;95232.94;;;14.08;100.00
67434;BME280;54305;47.950;6.572;2023-10-08T03:49:10;95239.78;;;13.93;100.00
67434;BME280;54305;47.950;6.572;2023-10-08T03:51:56;95236.16;;;13.94;100.00
67434;BME280;54305;47.950;6.572;2023-10-08T03:54:22;95230.25;;;13.84;100.00
67434;BME280;54305;47.950;6.572;2023-10-08T03:57:01;95227.31;;;13.87;100.00
67434;BME280;54305;47.950;6.572;2023-10-08T03:59:26;95227.13;;;13.72;100.00
67434;BME280;54305;47.950;6.572;2023-10-08T04:01:54;95222.38;;;13.76;100.00
67434;BME280;54305;47.950;6.572;2023-10-08T04:04:24;95229.88;;;13.71;100.00
67434;BME280;54305;47.950;6.572;2023-10-08T04:06:56;95232.50;;;13.71;100.00
67434;BME280;54305;47.950;6.572;2023-10-08T04:09:41;95232.84;;;13.76;100.00
67434;BME280;54305;47.950;6.572;2023-10-08T04:12:07;95236.06;;;13.62;100.00
67434;BME280;54305;47.950;6.572;2023-10-08T04:14:36;95232.78;;;13.60;100.00
67434;BME280;54305;47.950;6.572;2023-10-08T04:17:01;95227.97;;;13.47;100.00
67434;BME280;54305;47.950;6.572;2023-10-08T04:19:26;95223.81;;;13.29;100.00
67434;BME280;54305;47.950;6.572;2023-10-08T04:21:55;95218.97;;;13.42;100.00
67434;BME280;54305;47.950;6.572;2023-10-08T04:24:24;95220.00;;;13.57;100.00
67434;BME280;54305;47.950;6.572;2023-10-08T04:27:00;95221.00;;;13.56;100.00
67434;BME280;54305;47.950;6.572;2023-10-08T04:29:28;95217.00;;;13.44;100.00
67434;BME280;54305;47.950;6.572;2023-10-08T04:31:57;95214.34;;;13.36;100.00
67434;BME280;54305;47.950;6.572;2023-10-08T04:34:37;95210.78;;;13.37;100.00
67434;BME280;54305;47.950;6.572;2023-10-08T04:37:02;95215.38;;;13.43;100.00
67434;BME280;54305;47.950;6.572;2023-10-08T04:39:38;95216.97;;;13.36;100.00
67434;BME280;54305;47.950;6.572;2023-10-08T04:42:05;95218.28;;;13.32;100.00
67434;BME280;54305;47.950;6.572;2023-10-08T04:44:32;95220.53;;;13.27;100.00
67434;BME280;54305;47.950;6.572;2023-10-08T04:46:57;95219.72;;;13.26;100.00
67434;BME280;54305;47.950;6.572;2023-10-08T04:49:29;95215.47;;;13.33;100.00
67434;BME280;54305;47.950;6.572;2023-10-08T04:51:55;95228.09;;;13.38;100.00
67434;BME280;54305;47.950;6.572;2023-10-08T04:54:24;95215.06;;;13.46;100.00
67434;BME280;54305;47.950;6.572;2023-10-08T04:56:49;95222.59;;;13.49;100.00
67434;BME280;54305;47.950;6.572;2023-10-08T04:59:16;95227.47;;;13.44;100.00
67434;BME280;54305;47.950;6.572;2023-10-08T05:01:46;95226.25;;;13.64;100.00
67434;BME280;54305;47.950;6.572;2023-10-08T05:04:34;95227.28;;;13.79;100.00
67434;BME280;54305;47.950;6.572;2023-10-08T05:07:12;95231.94;;;14.01;100.00
67434;BME280;54305;47.950;6.572;2023-10-08T05:09:47;95232.59;;;14.03;100.00
67434;BME280;54305;47.950;6.572;2023-10-08T05:12:33;95235.50;;;13.92;100.00
67434;BME280;54305;47.950;6.572;2023-10-08T05:14:58;95237.47;;;13.90;100.00
67434;BME280;54305;47.950;6.572;2023-10-08T05:17:39;95235.22;;;13.95;100.00
67434;BME280;54305;47.950;6.572;2023-10-08T05:20:17;95236.34;;;13.92;100.00
67434;BME280;54305;47.950;6.572;2023-10-08T05:23:11;95237.34;;;13.99;100.00
67434;BME280;54305;47.950;6.572;2023-10-08T05:26:06;95230.03;;;14.19;100.00
67434;BME280;54305;47.950;6.572;2023-10-08T05:28:36;95230.72;;;14.29;100.00
67434;BME280;54305;47.950;6.572;2023-10-08T05:31:11;95226.78;;;14.41;100.00
67434;BME280;54305;47.950;6.572;2023-10-08T05:33:40;95229.09;;;14.44;100.00
67434;BME280;54305;47.950;6.572;2023-10-08T05:36:25;95222.88;;;14.45;100.00
67434;BME280;54305;47.950;6.572;2023-10-08T05:39:01;95225.81;;;14.34;100.00
67434;BME280;54305;47.950;6.572;2023-10-08T05:41:29;95227.75;;;14.32;100.00
67434;BME280;54305;47.950;6.572;2023-10-08T05:44:04;95225.81;;;14.26;100.00
67434;BME280;54305;47.950;6.572;2023-10-08T05:46:39;95233.31;;;14.21;100.00
67434;BME280;54305;47.950;6.572;2023-10-08T05:49:12;95224.50;;;14.30;100.00
67434;BME280;54305;47.950;6.572;2023-10-08T05:51:37;95229.91;;;14.28;100.00
67434;BME280;54305;47.950;6.572;2023-10-08T05:54:19;95221.84;;;14.22;100.00
67434;BME280;54305;47.950;6.572;2023-10-08T05:56:54;95226.13;;;14.23;100.00
67434;BME280;54305;47.950;6.572;2023-10-08T05:59:35;95219.56;;;14.19;100.00
67434;BME280;54305;47.950;6.572;2023-10-08T06:02:19;95226.47;;;14.28;100.00
67434;BME280;54305;47.950;6.572;2023-10-08T06:05:00;95225.81;;;14.26;100.00
67434;BME280;54305;47.950;6.572;2023-10-08T06:07:45;95230.38;;;14.32;100.00
67434;BME280;54305;47.950;6.572;2023-10-08T06:10:14;95224.19;;;14.41;100.00
67434;BME280;54305;47.950;6.572;2023-10-08T06:18:30;95227.13;;;14.94;100.00
67434;BME280;54305;47.950;6.572;2023-10-08T06:21:05;95225.81;;;14.90;100.00
67434;BME280;54305;47.950;6.572;2023-10-08T06:23:35;95225.81;;;14.90;100.00
67434;BME280;54305;47.950;6.572;2023-10-08T06:26:01;95223.84;;;14.92;100.00
67434;BME280;54305;47.950;6.572;2023-10-08T06:28:36;95232.72;;;14.91;100.00
67434;BME280;54305;47.950;6.572;2023-10-08T06:31:03;95235.16;;;15.00;100.00
67434;BME280;54305;47.950;6.572;2023-10-08T06:33:31;95228.72;;;15.27;100.00
67434;BME280;54305;47.950;6.572;2023-10-08T06:35:58;95238.53;;;15.49;100.00
67434;BME280;54305;47.950;6.572;2023-10-08T06:38:34;95249.03;;;15.49;100.00
67434;BME280;54305;47.950;6.572;2023-10-08T06:41:00;95254.28;;;15.49;100.00
67434;BME280;54305;47.950;6.572;2023-10-08T06:43:28;95256.19;;;15.63;100.00
67434;BME280;54305;47.950;6.572;2023-10-08T06:45:53;95244.28;;;15.91;100.00
67434;BME280;54305;47.950;6.572;2023-10-08T06:48:23;95247.47;;;16.09;100.00
67434;BME280;54305;47.950;6.572;2023-10-08T06:50:48;95245.97;;;16.14;99.03
67434;BME280;54305;47.950;6.572;2023-10-08T06:53:14;95245.03;;;16.30;93.92
67434;BME280;54305;47.950;6.572;2023-10-08T06:55:40;95244.38;;;16.36;97.55
67434;BME280;54305;47.950;6.572;2023-10-08T06:58:07;95247.97;;;16.35;100.00
67434;BME280;54305;47.950;6.572;2023-10-08T07:00:39;95252.91;;;16.38;100.00
67434;BME280;54305;47.950;6.572;2023-10-08T07:03:08;95260.06;;;16.52;100.00
67434;BME280;54305;47.950;6.572;2023-10-08T07:05:36;95261.25;;;16.72;100.00
67434;BME280;54305;47.950;6.572;2023-10-08T07:08:02;95268.50;;;16.70;100.00
67434;BME280;54305;47.950;6.572;2023-10-08T07:10:31;95263.91;;;16.64;100.00
67434;BME280;54305;47.950;6.572;2023-10-08T07:12:57;95264.63;;;16.58;100.00
67434;BME280;54305;47.950;6.572;2023-10-08T07:15:24;95275.03;;;16.51;100.00
67434;BME280;54305;47.950;6.572;2023-10-08T07:17:51;95266.03;;;16.46;100.00
67434;BME280;54305;47.950;6.572;2023-10-08T07:20:16;95271.97;;;16.40;100.00
67434;BME280;54305;47.950;6.572;2023-10-08T07:22:42;95278.59;;;16.28;100.00
67434;BME280;54305;47.950;6.572;2023-10-08T07:25:08;95279.53;;;16.35;100.00
67434;BME280;54305;47.950;6.572;2023-10-08T07:27:34;95287.06;;;16.46;100.00
67434;BME280;54305;47.950;6.572;2023-10-08T07:30:03;95281.56;;;16.78;100.00
67434;BME280;54305;47.950;6.572;2023-10-08T07:32:35;95274.06;;;17.12;100.00
67434;BME280;54305;47.950;6.572;2023-10-08T07:35:02;95286.22;;;17.35;100.00
67434;BME280;54305;47.950;6.572;2023-10-08T07:37:49;95291.81;;;17.69;100.00
67434;BME280;54305;47.950;6.572;2023-10-08T07:40:15;95283.91;;;17.98;100.00
67434;BME280;54305;47.950;6.572;2023-10-08T07:42:41;95281.16;;;18.21;100.00
67434;BME280;54305;47.950;6.572;2023-10-08T07:45:06;95288.47;;;18.54;100.00
67434;BME280;54305;47.950;6.572;2023-10-08T07:47:32;95283.34;;;18.67;100.00
67434;BME280;54305;47.950;6.572;2023-10-08T07:49:57;95288.59;;;18.82;100.00
67434;BME280;54305;47.950;6.572;2023-10-08T07:52:24;95289.69;;;19.15;99.47
67434;BME280;54305;47.950;6.572;2023-10-08T07:54:49;95283.78;;;19.34;100.00
67434;BME280;54305;47.950;6.572;2023-10-08T07:57:14;95291.59;;;19.42;94.88
67434;BME280;54305;47.950;6.572;2023-10-08T07:59:51;95289.72;;;19.63;92.26
67434;BME280;54305;47.950;6.572;2023-10-08T08:02:19;95285.56;;;19.82;100.00
67434;BME280;54305;47.950;6.572;2023-10-08T08:04:50;95288.75;;;20.05;100.00
67434;BME280;54305;47.950;6.572;2023-10-08T08:07:16;95286.47;;;20.36;100.00
67434;BME280;54305;47.950;6.572;2023-10-08T08:09:42;95291.47;;;20.59;89.74
67434;BME280;54305;47.950;6.572;2023-10-08T08:12:09;95293.94;;;20.73;90.42
67434;BME280;54305;47.950;6.572;2023-10-08T08:14:37;95289.56;;;21.06;85.07
67434;BME280;54305;47.950;6.572;2023-10-08T08:17:05;95292.88;;;21.34;72.91
67434;BME280;54305;47.950;6.572;2023-10-08T08:19:39;95297.34;;;21.40;75.76
67434;BME280;54305;47.950;6.572;2023-10-08T08:22:04;95301.03;;;21.72;69.78
67434;BME280;54305;47.950;6.572;2023-10-08T08:24:29;95294.72;;;21.79;69.21
67434;BME280;54305;47.950;6.572;2023-10-08T08:27:00;95296.91;;;21.95;62.30
67434;BME280;54305;47.950;6.572;2023-10-08T08:29:27;95289.53;;;22.10;64.72
67434;BME280;54305;47.950;6.572;2023-10-08T08:31:52;95293.75;;;22.31;61.83
67434;BME280;54305;47.950;6.572;2023-10-08T08:34:18;95296.59;;;22.49;69.20
67434;BME280;54305;47.950;6.572;2023-10-08T08:36:44;95295.13;;;22.59;58.07
67434;BME280;54305;47.950;6.572;2023-10-08T08:39:13;95294.59;;;22.88;63.43
67434;BME280;54305;47.950;6.572;2023-10-08T08:41:52;95300.31;;;23.16;59.21
67434;BME280;54305;47.950;6.572;2023-10-08T08:44:19;95306.16;;;23.31;59.53
67434;BME280;54305;47.950;6.572;2023-10-08T08:46:45;95305.50;;;23.67;59.62
67434;BME280;54305;47.950;6.572;2023-10-08T08:49:12;95300.28;;;23.54;58.78
67434;BME280;54305;47.950;6.572;2023-10-08T08:51:38;95297.03;;;23.76;54.01
67434;BME280;54305;47.950;6.572;2023-10-08T08:54:03;95294.44;;;23.94;55.24
67434;BME280;54305;47.950;6.572;2023-10-08T08:56:35;95304.81;;;24.20;55.00
67434;BME280;54305;47.950;6.572;2023-10-08T08:59:02;95296.69;;;24.33;51.27
67434;BME280;54305;47.950;6.572;2023-10-08T09:01:29;95304.97;;;24.43;52.01
67434;BME280;54305;47.950;6.572;2023-10-08T09:04:01;95310.38;;;24.55;50.48
67434;BME280;54305;47.950;6.572;2023-10-08T09:06:27;95305.59;;;24.63;44.38
67434;BME280;54305;47.950;6.572;2023-10-08T09:08:52;95305.41;;;24.58;42.66
67434;BME280;54305;47.950;6.572;2023-10-08T09:11:20;95303.34;;;24.60;44.98
67434;BME280;54305;47.950;6.572;2023-10-08T09:13:46;95298.31;;;24.70;44.58
67434;BME280;54305;47.950;6.572;2023-10-08T09:16:12;95307.31;;;25.05;47.91
67434;BME280;54305;47.950;6.572;2023-10-08T09:18:38;95309.38;;;25.33;45.54
67434;BME280;54305;47.950;6.572;2023-10-08T09:21:16;95304.41;;;25.36;41.80
67434;BME280;54305;47.950;6.572;2023-10-08T09:23:44;95308.19;;;25.81;42.96
67434;BME280;54305;47.950;6.572;2023-10-08T09:26:10;95302.50;;;25.66;45.07
67434;BME280;54305;47.950;6.572;2023-10-08T09:28:36;95304.84;;;26.20;40.27
67434;BME280;54305;47.950;6.572;2023-10-08T09:31:03;95291.47;;;26.43;43.04
67434;BME280;54305;47.950;6.572;2023-10-08T09:33:29;95302.28;;;26.48;41.88
67434;BME280;54305;47.950;6.572;2023-10-08T09:35:55;95304.16;;;26.36;39.35
67434;BME280;54305;47.950;6.572;2023-10-08T09:38:22;95315.81;;;26.81;39.98
67434;BME280;54305;47.950;6.572;2023-10-08T09:40:49;95305.41;;;26.68;38.88
67434;BME280;54305;47.950;6.572;2023-10-08T09:43:14;95306.34;;;27.02;37.96
67434;BME280;54305;47.950;6.572;2023-10-08T09:45:42;95305.59;;;26.78;37.40
67434;BME280;54305;47.950;6.572;2023-10-08T09:48:11;95297.06;;;26.93;39.11
67434;BME280;54305;47.950;6.572;2023-10-08T09:50:38;95297.44;;;27.24;36.05
67434;BME280;54305;47.950;6.572;2023-10-08T09:53:08;95299.84;;;27.70;34.98
67434;BME280;54305;47.950;6.572;2023-10-08T09:55:54;95303.81;;;28.17;37.04
67434;BME280;54305;47.950;6.572;2023-10-08T09:58:20;95297.38;;;28.51;35.84
67434;BME280;54305;47.950;6.572;2023-10-08T10:00:47;95299.13;;;29.05;33.76
67434;BME280;54305;47.950;6.572;2023-10-08T10:03:13;95295.34;;;29.54;33.10
67434;BME280;54305;47.950;6.572;2023-10-08T10:05:39;95292.06;;;30.10;33.07
67434;BME280;54305;47.950;6.572;2023-10-08T10:08:05;95289.94;;;30.49;32.20
67434;BME280;54305;47.950;6.572;2023-10-08T10:10:31;95286.72;;;30.52;28.55
67434;BME280;54305;47.950;6.572;2023-10-08T10:12:58;95289.31;;;30.83;30.27
67434;BME280;54305;47.950;6.572;2023-10-08T10:15:27;95298.13;;;31.40;29.50
67434;BME280;54305;47.950;6.572;2023-10-08T10:17:58;95297.88;;;31.47;29.22
67434;BME280;54305;47.950;6.572;2023-10-08T10:20:23;95291.19;;;31.90;29.95
67434;BME280;54305;47.950;6.572;2023-10-08T10:22:49;95292.28;;;32.34;27.93
67434;BME280;54305;47.950;6.572;2023-10-08T10:25:17;95297.16;;;32.27;27.03
67434;BME280;54305;47.950;6.572;2023-10-08T10:30:29;95301.41;;;32.53;27.48
67434;BME280;54305;47.950;6.572;2023-10-08T10:32:54;95297.03;;;32.82;26.76
67434;BME280;54305;47.950;6.572;2023-10-08T10:35:20;95301.63;;;32.81;27.36
67434;BME280;54305;47.950;6.572;2023-10-08T10:37:45;95309.78;;;33.35;27.43
67434;BME280;54305;47.950;6.572;2023-10-08T10:40:25;95300.34;;;33.76;27.03
67434;BME280;54305;47.950;6.572;2023-10-08T10:43:06;95302.41;;;34.51;24.86
67434;BME280;54305;47.950;6.572;2023-10-08T10:45:32;95308.22;;;34.68;24.59
67434;BME280;54305;47.950;6.572;2023-10-08T10:48:05;95308.13;;;34.78;24.57
67434;BME280;54305;47.950;6.572;2023-10-08T10:50:56;95306.06;;;34.65;25.47
67434;BME280;54305;47.950;6.572;2023-10-08T10:53:29;95300.66;;;34.65;25.25
67434;BME280;54305;47.950;6.572;2023-10-08T10:55:54;95302.56;;;35.35;23.93
67434;BME280;54305;47.950;6.572;2023-10-08T10:58:43;95298.19;;;35.76;23.28
67434;BME280;54305;47.950;6.572;2023-10-08T11:01:08;95297.88;;;35.96;24.23
67434;BME280;54305;47.950;6.572;2023-10-08T11:03:51;95294.03;;;36.47;23.12
67434;BME280;54305;47.950;6.572;2023-10-08T11:06:22;95285.97;;;36.29;23.15
67434;BME280;54305;47.950;6.572;2023-10-08T11:08:49;95283.06;;;36.39;22.17
67434;BME280;54305;47.950;6.572;2023-10-08T11:11:16;95284.66;;;36.72;22.83
67434;BME280;54305;47.950;6.572;2023-10-08T11:13:42;95277.13;;;36.37;23.37
67434;BME280;54305;47.950;6.572;2023-10-08T11:16:08;95275.13;;;36.42;23.56
67434;BME280;54305;47.950;6.572;2023-10-08T11:18:42;95278.28;;;36.63;22.66
67434;BME280;54305;47.950;6.572;2023-10-08T11:21:09;95278.75;;;36.51;23.17
67434;BME280;54305;47.950;6.572;2023-10-08T11:23:45;95281.81;;;36.63;23.30
67434;BME280;54305;47.950;6.572;2023-10-08T11:26:17;95281.63;;;36.87;23.27
67434;BME280;54305;47.950;6.572;2023-10-08T11:28:44;95275.47;;;36.22;20.22
67434;BME280;54305;47.950;6.572;2023-10-08T11:31:13;95279.41;;;36.75;22.31
67434;BME280;54305;47.950;6.572;2023-10-08T11:33:43;95276.78;;;37.73;21.71
67434;BME280;54305;47.950;6.572;2023-10-08T11:36:19;95266.72;;;36.98;20.00
67434;BME280;54305;47.950;6.572;2023-10-08T11:38:47;95275.47;;;36.81;21.82
67434;BME280;54305;47.950;6.572;2023-10-08T11:41:19;95272.56;;;38.03;21.21
67434;BME280;54305;47.950;6.572;2023-10-08T11:46:13;95279.06;;;38.68;20.06
67434;BME280;54305;47.950;6.572;2023-10-08T11:48:39;95269.47;;;39.09;20.13
67434;BME280;54305;47.950;6.572;2023-10-08T11:51:08;95269.75;;;39.64;19.75
67434;BME280;54305;47.950;6.572;2023-10-08T11:53:37;95274.78;;;38.23;21.66
67434;BME280;54305;47.950;6.572;2023-10-08T11:56:02;95264.44;;;37.67;21.08
67434;BME280;54305;47.950;6.572;2023-10-08T11:58:27;95257.78;;;37.11;20.91
67434;BME280;54305;47.950;6.572;2023-10-08T12:01:05;95261.72;;;38.94;19.67
67434;BME280;54305;47.950;6.572;2023-10-08T12:03:30;95262.03;;;39.49;19.83
67434;BME280;54305;47.950;6.572;2023-10-08T12:05:57;95262.94;;;40.55;18.57
67434;BME280;54305;47.950;6.572;2023-10-08T12:08:25;95258.81;;;40.32;19.34
67434;BME280;54305;47.950;6.572;2023-10-08T12:10:52;95259.41;;;40.54;18.11
67434;BME280;54305;47.950;6.572;2023-10-08T12:13:19;95252.59;;;40.23;18.01
67434;BME280;54305;47.950;6.572;2023-10-08T12:15:49;95252.72;;;40.35;19.63
67434;BME280;54305;47.950;6.572;2023-10-08T12:18:15;95252.50;;;40.66;18.24
67434;BME280;54305;47.950;6.572;2023-10-08T12:20:43;95245.34;;;40.82;17.63
67434;BME280;54305;47.950;6.572;2023-10-08T12:23:09;95243.47;;;40.65;18.26
67434;BME280;54305;47.950;6.572;2023-10-08T12:25:36;95243.41;;;39.34;19.56
67434;BME280;54305;47.950;6.572;2023-10-08T12:28:02;95243.59;;;39.46;19.28
67434;BME280;54305;47.950;6.572;2023-10-08T12:30:29;95239.25;;;39.62;19.00
67434;BME280;54305;47.950;6.572;2023-10-08T12:32:56;95224.97;;;39.31;18.61
67434;BME280;54305;47.950;6.572;2023-10-08T12:35:22;95236.97;;;38.21;20.66
67434;BME280;54305;47.950;6.572;2023-10-08T12:37:49;95224.38;;;37.81;20.24
67434;BME280;54305;47.950;6.572;2023-10-08T12:40:14;95218.38;;;37.71;21.52
67434;BME280;54305;47.950;6.572;2023-10-08T12:42:51;95226.34;;;38.33;20.51
67434;BME280;54305;47.950;6.572;2023-10-08T12:45:17;95218.38;;;37.93;20.86
67434;BME280;54305;47.950;6.572;2023-10-08T12:47:52;95222.47;;;37.11;21.23
67434;BME280;54305;47.950;6.572;2023-10-08T12:50:18;95217.94;;;37.42;21.37
67434;BME280;54305;47.950;6.572;2023-10-08T12:52:54;95214.53;;;37.94;20.75
67434;BME280;54305;47.950;6.572;2023-10-08T12:55:20;95216.91;;;37.87;20.42
67434;BME280;54305;47.950;6.572;2023-10-08T12:57:49;95214.03;;;36.72;21.03
67434;BME280;54305;47.950;6.572;2023-10-08T13:00:22;95216.81;;;37.21;21.96
67434;BME280;54305;47.950;6.572;2023-10-08T13:02:48;95216.81;;;36.94;22.77
67434;BME280;54305;47.950;6.572;2023-10-08T13:05:18;95208.75;;;35.89;23.39
67434;BME280;54305;47.950;6.572;2023-10-08T13:07:46;95208.94;;;35.61;24.12
67434;BME280;54305;47.950;6.572;2023-10-08T13:10:12;95212.47;;;35.93;23.70
67434;BME280;54305;47.950;6.572;2023-10-08T13:12:39;95202.44;;;35.94;23.63
67434;BME280;54305;47.950;6.572;2023-10-08T13:15:05;95197.28;;;35.05;24.17
67434;BME280;54305;47.950;6.572;2023-10-08T13:17:31;95201.97;;;34.76;24.40